Time,TemperatureF,DewpointF,PressureIn,WindDirection,WindDirectionDegrees,WindSpeedMPH,WindSpeedGustMPH,Humidity,HourlyPrecipIn,Conditions,Clouds,dailyrainin,SoftwareType,DateUTC
2013-04-17 00:00:00,71.3,68.2,29.84,SSE,158,5.0,-999.0,90,0.00,,,0.00,Wunderground v.1.15,2013-04-17 05:00:00,
2013-04-17 00:05:00,71.3,68.2,29.84,SSE,158,5.0,-999.0,90,0.00,,,0.00,Wunderground v.1.15,2013-04-17 05:05:00,
2013-04-17 00:10:00,71.3,68.2,29.84,SSE,158,5.0,-999.0,90,0.00,,,0.00,Wunderground v.1.15,2013-04-17 05:10:00,
2013-04-17 00:15:00,71.3,68.2,29.84,SSE,158,5.0,-999.0,90,0.00,,,0.00,Wunderground v.1.15,2013-04-17 05:15:00,
2013-04-17 00:20:00,71.3,68.2,29.84,SSE,158,5.0,-999.0,90,0.00,,,0.00,Wunderground v.1.15,2013-04-17 05:20:00,
2013-04-17 00:25:00,71.7,68.6,29.83,SSE,158,5.0,-999.0,90,0.00,,,0.00,Wunderground v.1.15,2013-04-17 05:25:00,
2013-04-17 00:30:00,71.7,68.6,29.83,SSE,158,5.0,-999.0,90,0.00,,,0.00,Wunderground v.1.15,2013-04-17 05:30:00,
2013-04-17 00:35:00,71.7,68.6,29.83,SSE,158,5.0,-999.0,90,0.00,,,0.00,Wunderground v.1.15,2013-04-17 05:35:00,
2013-04-17 00:40:00,72.1,69.0,29.83,SSE,158,6.0,-999.0,90,0.00,,,0.00,Wunderground v.1.15,2013-04-17 05:40:00,
2013-04-17 00:45:00,72.1,69.0,29.83,SSE,158,6.0,-999.0,90,0.00,,,0.00,Wunderground v.1.15,2013-04-17 05:45:00,
2013-04-17 00:50:00,72.1,69.0,29.83,SSE,158,6.0,-999.0,90,0.00,,,0.00,Wunderground v.1.15,2013-04-17 05:50:00,
2013-04-17 00:55:00,72.8,69.7,29.83,SSE,158,8.0,-999.0,90,0.00,,,0.00,Wunderground v.1.15,2013-04-17 05:55:00,
2013-04-17 01:00:00,72.8,69.7,29.83,SSE,158,8.0,-999.0,90,0.00,,,0.00,Wunderground v.1.15,2013-04-17 06:00:00,
2013-04-17 01:05:00,72.8,69.7,29.83,SSE,158,8.0,-999.0,90,0.00,,,0.00,Wunderground v.1.15,2013-04-17 06:05:00,
2013-04-17 01:10:00,73.2,70.1,29.83,South,180,8.0,-999.0,90,0.00,,,0.00,Wunderground v.1.15,2013-04-17 06:10:00,
2013-04-17 01:15:00,73.2,70.1,29.83,South,180,8.0,-999.0,90,0.00,,,0.00,Wunderground v.1.15,2013-04-17 06:15:00,
2013-04-17 01:20:00,73.2,70.1,29.83,South,180,8.0,-999.0,90,0.00,,,0.00,Wunderground v.1.15,2013-04-17 06:20:00,
2013-04-17 01:25:00,73.3,70.2,29.83,South,180,10.0,-999.0,90,0.00,,,0.00,Wunderground v.1.15,2013-04-17 06:25:00,
2013-04-17 01:30:00,73.3,70.2,29.83,South,180,10.0,-999.0,90,0.00,,,0.00,Wunderground v.1.15,2013-04-17 06:30:00,
2013-04-17 01:35:00,73.3,70.2,29.83,South,180,10.0,-999.0,90,0.00,,,0.00,Wunderground v.1.15,2013-04-17 06:35:00,
2013-04-17 01:40:00,73.3,70.5,29.83,South,180,9.0,-999.0,91,0.00,,,0.00,Wunderground v.1.15,2013-04-17 06:40:00,
2013-04-17 01:45:00,73.3,70.5,29.83,South,180,9.0,-999.0,91,0.00,,,0.00,Wunderground v.1.15,2013-04-17 06:45:00,
2013-04-17 01:50:00,73.3,70.5,29.83,South,180,9.0,-999.0,91,0.00,,,0.00,Wunderground v.1.15,2013-04-17 06:50:00,
2013-04-17 01:55:00,73.4,70.9,29.83,South,180,7.0,-999.0,92,0.00,,,0.00,Wunderground v.1.15,2013-04-17 06:55:00,
2013-04-17 02:00:00,73.4,70.9,29.83,South,180,7.0,-999.0,92,0.00,,,0.00,Wunderground v.1.15,2013-04-17 07:00:00,
2013-04-17 02:05:00,73.4,70.9,29.83,South,180,7.0,-999.0,92,0.00,,,0.00,Wunderground v.1.15,2013-04-17 07:05:00,
2013-04-17 02:10:00,73.6,71.1,29.82,South,180,9.0,-999.0,92,0.00,,,0.00,Wunderground v.1.15,2013-04-17 07:10:00,
2013-04-17 02:15:00,73.6,71.1,29.82,South,180,9.0,-999.0,92,0.00,,,0.00,Wunderground v.1.15,2013-04-17 07:15:00,
2013-04-17 02:20:00,73.6,71.1,29.82,South,180,9.0,-999.0,92,0.00,,,0.00,Wunderground v.1.15,2013-04-17 07:20:00,
2013-04-17 02:25:00,73.8,71.3,29.82,South,180,9.0,-999.0,92,0.00,,,0.00,Wunderground v.1.15,2013-04-17 07:25:00,
2013-04-17 02:30:00,73.8,71.3,29.82,South,180,9.0,-999.0,92,0.00,,,0.00,Wunderground v.1.15,2013-04-17 07:30:00,
2013-04-17 02:35:00,73.8,71.3,29.82,South,180,9.0,-999.0,92,0.00,,,0.00,Wunderground v.1.15,2013-04-17 07:35:00,
2013-04-17 02:40:00,74.0,71.5,29.81,SSW,203,8.0,-999.0,92,0.00,,,0.00,Wunderground v.1.15,2013-04-17 07:40:00,
2013-04-17 02:45:00,74.0,71.5,29.81,SSW,203,8.0,-999.0,92,0.00,,,0.00,Wunderground v.1.15,2013-04-17 07:45:00,
2013-04-17 02:50:00,74.0,71.5,29.81,SSW,203,8.0,-999.0,92,0.00,,,0.00,Wunderground v.1.15,2013-04-17 07:50:00,
2013-04-17 02:55:00,74.0,71.5,29.82,SSW,203,8.0,-999.0,92,0.00,,,0.00,Wunderground v.1.15,2013-04-17 07:55:00,
2013-04-17 03:00:00,74.0,71.5,29.82,SSW,203,8.0,-999.0,92,0.00,,,0.00,Wunderground v.1.15,2013-04-17 08:00:00,
2013-04-17 03:05:00,74.0,71.5,29.82,SSW,203,8.0,-999.0,92,0.00,,,0.00,Wunderground v.1.15,2013-04-17 08:05:00,
2013-04-17 03:10:00,74.0,71.2,29.82,South,180,9.0,-999.0,91,0.00,,,0.00,Wunderground v.1.15,2013-04-17 08:10:00,
2013-04-17 03:15:00,74.0,71.2,29.82,South,180,9.0,-999.0,91,0.00,,,0.00,Wunderground v.1.15,2013-04-17 08:15:00,
2013-04-17 03:20:00,74.0,71.2,29.82,South,180,9.0,-999.0,91,0.00,,,0.00,Wunderground v.1.15,2013-04-17 08:20:00,
2013-04-17 03:25:00,74.0,70.9,29.82,SSW,203,10.0,-999.0,90,0.00,,,0.00,Wunderground v.1.15,2013-04-17 08:25:00,
2013-04-17 03:30:00,74.0,70.9,29.82,SSW,203,10.0,-999.0,90,0.00,,,0.00,Wunderground v.1.15,2013-04-17 08:30:00,
2013-04-17 03:35:00,74.0,70.9,29.82,SSW,203,10.0,-999.0,90,0.00,,,0.00,Wunderground v.1.15,2013-04-17 08:35:00,
2013-04-17 03:40:00,74.1,70.6,29.81,South,180,11.0,-999.0,89,0.00,,,0.00,Wunderground v.1.15,2013-04-17 08:40:00,
2013-04-17 03:45:00,74.1,70.6,29.81,South,180,11.0,-999.0,89,0.00,,,0.00,Wunderground v.1.15,2013-04-17 08:45:00,
2013-04-17 03:50:00,74.1,70.6,29.81,South,180,11.0,-999.0,89,0.00,,,0.00,Wunderground v.1.15,2013-04-17 08:50:00,
2013-04-17 03:55:00,74.0,70.9,29.82,South,180,9.0,-999.0,90,0.00,,,0.00,Wunderground v.1.15,2013-04-17 08:55:00,
2013-04-17 04:00:00,74.0,70.9,29.82,South,180,9.0,-999.0,90,0.00,,,0.00,Wunderground v.1.15,2013-04-17 09:00:00,
2013-04-17 04:05:00,74.0,70.9,29.82,South,180,9.0,-999.0,90,0.00,,,0.00,Wunderground v.1.15,2013-04-17 09:05:00,
2013-04-17 04:10:00,73.8,70.7,29.82,South,180,8.0,-999.0,90,0.00,,,0.00,Wunderground v.1.15,2013-04-17 09:10:00,
2013-04-17 04:15:00,73.8,70.7,29.82,South,180,8.0,-999.0,90,0.00,,,0.00,Wunderground v.1.15,2013-04-17 09:15:00,
2013-04-17 04:20:00,73.8,70.7,29.82,South,180,8.0,-999.0,90,0.00,,,0.00,Wunderground v.1.15,2013-04-17 09:20:00,
2013-04-17 04:25:00,73.8,70.7,29.81,South,180,10.0,-999.0,90,0.00,,,0.00,Wunderground v.1.15,2013-04-17 09:25:00,
2013-04-17 04:30:00,73.8,70.7,29.81,South,180,10.0,-999.0,90,0.00,,,0.00,Wunderground v.1.15,2013-04-17 09:30:00,
2013-04-17 04:35:00,73.8,70.7,29.81,South,180,10.0,-999.0,90,0.00,,,0.00,Wunderground v.1.15,2013-04-17 09:35:00,
2013-04-17 04:40:00,73.7,70.3,29.81,South,180,10.0,-999.0,89,0.00,,,0.00,Wunderground v.1.15,2013-04-17 09:40:00,
2013-04-17 04:45:00,73.7,70.3,29.81,South,180,10.0,-999.0,89,0.00,,,0.00,Wunderground v.1.15,2013-04-17 09:45:00,
2013-04-17 04:50:00,73.7,70.3,29.81,South,180,10.0,-999.0,89,0.00,,,0.00,Wunderground v.1.15,2013-04-17 09:50:00,
2013-04-17 04:55:00,73.7,69.9,29.81,South,180,10.0,-999.0,88,0.00,,,0.00,Wunderground v.1.15,2013-04-17 09:55:00,
2013-04-17 05:00:00,73.7,69.9,29.81,South,180,10.0,-999.0,88,0.00,,,0.00,Wunderground v.1.15,2013-04-17 10:00:00,
2013-04-17 05:05:00,73.7,69.9,29.81,South,180,10.0,-999.0,88,0.00,,,0.00,Wunderground v.1.15,2013-04-17 10:05:00,
2013-04-17 05:10:00,73.7,69.9,29.80,South,180,12.0,-999.0,88,0.00,,,0.00,Wunderground v.1.15,2013-04-17 10:10:00,
2013-04-17 05:15:00,73.7,69.9,29.80,South,180,12.0,-999.0,88,0.00,,,0.00,Wunderground v.1.15,2013-04-17 10:15:00,
2013-04-17 05:20:00,73.7,69.9,29.80,South,180,12.0,-999.0,88,0.00,,,0.00,Wunderground v.1.15,2013-04-17 10:20:00,
2013-04-17 05:25:00,73.0,69.6,29.80,SSE,158,10.0,-999.0,89,0.00,,,0.00,Wunderground v.1.15,2013-04-17 10:25:00,
2013-04-17 05:30:00,73.0,69.6,29.80,SSE,158,10.0,-999.0,89,0.00,,,0.00,Wunderground v.1.15,2013-04-17 10:30:00,
2013-04-17 05:35:00,73.0,69.6,29.80,SSE,158,10.0,-999.0,89,0.00,,,0.00,Wunderground v.1.15,2013-04-17 10:35:00,
2013-04-17 05:40:00,72.7,69.3,29.80,South,180,12.0,-999.0,89,0.00,,,0.00,Wunderground v.1.15,2013-04-17 10:40:00,
2013-04-17 05:45:00,72.7,69.3,29.80,South,180,12.0,-999.0,89,0.00,,,0.00,Wunderground v.1.15,2013-04-17 10:45:00,
2013-04-17 05:50:00,72.7,69.3,29.80,South,180,12.0,-999.0,89,0.00,,,0.00,Wunderground v.1.15,2013-04-17 10:50:00,
2013-04-17 05:55:00,72.4,69.3,29.79,South,180,13.0,-999.0,90,0.00,,,0.00,Wunderground v.1.15,2013-04-17 10:55:00,
2013-04-17 06:00:00,72.4,69.3,29.79,South,180,13.0,-999.0,90,0.00,,,0.00,Wunderground v.1.15,2013-04-17 11:00:00,
2013-04-17 06:05:00,72.4,69.3,29.79,South,180,13.0,-999.0,90,0.00,,,0.00,Wunderground v.1.15,2013-04-17 11:05:00,
2013-04-17 06:10:00,72.5,69.4,29.80,South,180,13.0,-999.0,90,0.00,,,0.00,Wunderground v.1.15,2013-04-17 11:10:00,
2013-04-17 06:15:00,72.5,69.4,29.80,South,180,13.0,-999.0,90,0.00,,,0.00,Wunderground v.1.15,2013-04-17 11:15:00,
2013-04-17 06:20:00,72.5,69.4,29.80,South,180,13.0,-999.0,90,0.00,,,0.00,Wunderground v.1.15,2013-04-17 11:20:00,
2013-04-17 06:25:00,72.5,69.1,29.81,South,180,12.0,-999.0,89,0.00,,,0.00,Wunderground v.1.15,2013-04-17 11:25:00,
2013-04-17 06:30:00,72.5,69.1,29.81,South,180,12.0,-999.0,89,0.00,,,0.00,Wunderground v.1.15,2013-04-17 11:30:00,
2013-04-17 06:35:00,72.5,69.1,29.81,South,180,12.0,-999.0,89,0.00,,,0.00,Wunderground v.1.15,2013-04-17 11:35:00,
2013-04-17 06:40:00,72.7,69.3,29.82,SSW,203,12.0,-999.0,89,0.00,,,0.00,Wunderground v.1.15,2013-04-17 11:40:00,
2013-04-17 06:45:00,72.7,69.3,29.82,SSW,203,12.0,-999.0,89,0.00,,,0.00,Wunderground v.1.15,2013-04-17 11:45:00,
2013-04-17 06:50:00,72.7,69.3,29.82,SSW,203,12.0,-999.0,89,0.00,,,0.00,Wunderground v.1.15,2013-04-17 11:50:00,
2013-04-17 06:55:00,72.7,69.3,29.82,SSW,203,11.0,-999.0,89,0.00,,,0.00,Wunderground v.1.15,2013-04-17 11:55:00,
2013-04-17 07:00:00,72.7,69.3,29.82,SSW,203,11.0,-999.0,89,0.00,,,0.00,Wunderground v.1.15,2013-04-17 12:00:00,
2013-04-17 07:05:00,72.7,69.3,29.82,SSW,203,11.0,-999.0,89,0.00,,,0.00,Wunderground v.1.15,2013-04-17 12:05:00,
2013-04-17 07:10:00,72.5,69.1,29.82,South,180,11.0,-999.0,89,0.00,,,0.00,Wunderground v.1.15,2013-04-17 12:10:00,
2013-04-17 07:15:00,72.5,69.1,29.82,South,180,11.0,-999.0,89,0.00,,,0.00,Wunderground v.1.15,2013-04-17 12:15:00,
2013-04-17 07:20:00,72.5,69.1,29.82,South,180,11.0,-999.0,89,0.00,,,0.00,Wunderground v.1.15,2013-04-17 12:20:00,
2013-04-17 07:25:00,72.5,69.1,29.82,South,180,11.0,-999.0,89,0.00,,,0.00,Wunderground v.1.15,2013-04-17 12:25:00,
2013-04-17 07:30:00,72.5,69.1,29.82,South,180,11.0,-999.0,89,0.00,,,0.00,Wunderground v.1.15,2013-04-17 12:30:00,
2013-04-17 07:35:00,72.5,69.1,29.82,South,180,11.0,-999.0,89,0.00,,,0.00,Wunderground v.1.15,2013-04-17 12:35:00,
2013-04-17 07:40:00,72.7,68.6,29.83,SSW,203,12.0,-999.0,87,0.00,,,0.00,Wunderground v.1.15,2013-04-17 12:40:00,
2013-04-17 07:45:00,72.7,68.6,29.83,SSW,203,12.0,-999.0,87,0.00,,,0.00,Wunderground v.1.15,2013-04-17 12:45:00,
2013-04-17 07:50:00,72.7,68.6,29.83,SSW,203,12.0,-999.0,87,0.00,,,0.00,Wunderground v.1.15,2013-04-17 12:50:00,
2013-04-17 07:55:00,72.8,69.0,29.83,South,180,11.0,-999.0,88,0.00,,,0.00,Wunderground v.1.15,2013-04-17 12:55:00,
2013-04-17 08:00:00,72.8,69.0,29.83,South,180,11.0,-999.0,88,0.00,,,0.00,Wunderground v.1.15,2013-04-17 13:00:00,
2013-04-17 08:05:00,72.8,69.0,29.83,South,180,11.0,-999.0,88,0.00,,,0.00,Wunderground v.1.15,2013-04-17 13:05:00,
2013-04-17 08:10:00,72.9,68.8,29.83,South,180,11.0,-999.0,87,0.00,,,0.00,Wunderground v.1.15,2013-04-17 13:10:00,
2013-04-17 08:15:00,72.9,68.8,29.83,South,180,11.0,-999.0,87,0.00,,,0.00,Wunderground v.1.15,2013-04-17 13:15:00,
2013-04-17 08:20:00,72.9,68.8,29.83,South,180,11.0,-999.0,87,0.00,,,0.00,Wunderground v.1.15,2013-04-17 13:20:00,
2013-04-17 08:25:00,73.1,69.0,29.82,South,180,11.0,-999.0,87,0.00,,,0.00,Wunderground v.1.15,2013-04-17 13:25:00,
2013-04-17 08:30:00,73.1,69.0,29.82,South,180,11.0,-999.0,87,0.00,,,0.00,Wunderground v.1.15,2013-04-17 13:30:00,
2013-04-17 08:35:00,73.1,69.0,29.82,South,180,11.0,-999.0,87,0.00,,,0.00,Wunderground v.1.15,2013-04-17 13:35:00,
2013-04-17 08:40:00,73.3,69.2,29.82,South,180,11.0,-999.0,87,0.00,,,0.00,Wunderground v.1.15,2013-04-17 13:40:00,
2013-04-17 08:45:00,73.3,69.2,29.82,South,180,11.0,-999.0,87,0.00,,,0.00,Wunderground v.1.15,2013-04-17 13:45:00,
2013-04-17 08:50:00,73.3,69.2,29.82,South,180,11.0,-999.0,87,0.00,,,0.00,Wunderground v.1.15,2013-04-17 13:50:00,
2013-04-17 08:55:00,73.8,69.3,29.81,South,180,11.0,-999.0,86,0.00,,,0.00,Wunderground v.1.15,2013-04-17 13:55:00,
2013-04-17 09:00:00,73.8,69.3,29.81,South,180,11.0,-999.0,86,0.00,,,0.00,Wunderground v.1.15,2013-04-17 14:00:00,
2013-04-17 09:05:00,73.8,69.3,29.81,South,180,11.0,-999.0,86,0.00,,,0.00,Wunderground v.1.15,2013-04-17 14:05:00,
2013-04-17 09:10:00,74.5,69.7,29.81,South,180,13.0,-999.0,85,0.00,,,0.00,Wunderground v.1.15,2013-04-17 14:10:00,
2013-04-17 09:15:00,74.5,69.7,29.81,South,180,13.0,-999.0,85,0.00,,,0.00,Wunderground v.1.15,2013-04-17 14:15:00,
2013-04-17 09:20:00,74.5,69.7,29.81,South,180,13.0,-999.0,85,0.00,,,0.00,Wunderground v.1.15,2013-04-17 14:20:00,
2013-04-17 09:25:00,75.3,69.4,29.81,South,180,13.0,-999.0,82,0.00,,,0.00,Wunderground v.1.15,2013-04-17 14:25:00,
2013-04-17 09:30:00,75.3,69.4,29.81,South,180,13.0,-999.0,82,0.00,,,0.00,Wunderground v.1.15,2013-04-17 14:30:00,
2013-04-17 09:35:00,75.3,69.4,29.81,South,180,13.0,-999.0,82,0.00,,,0.00,Wunderground v.1.15,2013-04-17 14:35:00,
2013-04-17 09:40:00,75.5,69.6,29.81,South,180,14.0,-999.0,82,0.00,,,0.00,Wunderground v.1.15,2013-04-17 14:40:00,
2013-04-17 09:45:00,75.5,69.6,29.81,South,180,14.0,-999.0,82,0.00,,,0.00,Wunderground v.1.15,2013-04-17 14:45:00,
2013-04-17 09:50:00,75.5,69.6,29.81,South,180,14.0,-999.0,82,0.00,,,0.00,Wunderground v.1.15,2013-04-17 14:50:00,
2013-04-17 09:55:00,76.1,70.2,29.81,South,180,13.0,-999.0,82,0.00,,,0.00,Wunderground v.1.15,2013-04-17 14:55:00,
2013-04-17 10:00:00,76.1,70.2,29.81,South,180,13.0,-999.0,82,0.00,,,0.00,Wunderground v.1.15,2013-04-17 15:00:00,
2013-04-17 10:05:00,76.1,70.2,29.81,South,180,13.0,-999.0,82,0.00,,,0.00,Wunderground v.1.15,2013-04-17 15:05:00,
2013-04-17 10:10:00,75.9,69.3,29.81,South,180,15.0,-999.0,80,0.00,,,0.00,Wunderground v.1.15,2013-04-17 15:10:00,
2013-04-17 10:15:00,75.9,69.3,29.81,South,180,15.0,-999.0,80,0.00,,,0.00,Wunderground v.1.15,2013-04-17 15:15:00,
2013-04-17 10:20:00,75.9,69.3,29.81,South,180,15.0,-999.0,80,0.00,,,0.00,Wunderground v.1.15,2013-04-17 15:20:00,
2013-04-17 10:25:00,76.7,69.3,29.81,SSW,203,15.0,-999.0,78,0.00,,,0.00,Wunderground v.1.15,2013-04-17 15:25:00,
2013-04-17 10:30:00,76.7,69.3,29.81,SSW,203,15.0,-999.0,78,0.00,,,0.00,Wunderground v.1.15,2013-04-17 15:30:00,
2013-04-17 10:35:00,76.7,69.3,29.81,SSW,203,15.0,-999.0,78,0.00,,,0.00,Wunderground v.1.15,2013-04-17 15:35:00,
2013-04-17 10:40:00,76.7,69.3,29.80,SSW,203,15.0,-999.0,78,0.00,,,0.00,Wunderground v.1.15,2013-04-17 15:40:00,
2013-04-17 10:45:00,76.7,69.3,29.80,SSW,203,15.0,-999.0,78,0.00,,,0.00,Wunderground v.1.15,2013-04-17 15:45:00,
2013-04-17 10:50:00,76.7,69.3,29.80,SSW,203,15.0,-999.0,78,0.00,,,0.00,Wunderground v.1.15,2013-04-17 15:50:00,
2013-04-17 10:55:00,78.2,70.8,29.79,SSW,203,14.0,-999.0,78,0.00,,,0.00,Wunderground v.1.15,2013-04-17 15:55:00,
2013-04-17 11:00:00,78.2,70.8,29.79,SSW,203,14.0,-999.0,78,0.00,,,0.00,Wunderground v.1.15,2013-04-17 16:00:00,
2013-04-17 11:05:00,78.2,70.8,29.79,SSW,203,14.0,-999.0,78,0.00,,,0.00,Wunderground v.1.15,2013-04-17 16:05:00,
2013-04-17 11:10:00,79.1,70.1,29.79,South,180,16.0,-999.0,74,0.00,,,0.00,Wunderground v.1.15,2013-04-17 16:10:00,
2013-04-17 11:15:00,79.1,70.1,29.79,South,180,16.0,-999.0,74,0.00,,,0.00,Wunderground v.1.15,2013-04-17 16:15:00,
2013-04-17 11:20:00,79.1,70.1,29.79,South,180,16.0,-999.0,74,0.00,,,0.00,Wunderground v.1.15,2013-04-17 16:20:00,
2013-04-17 11:25:00,79.0,70.0,29.78,South,180,17.0,-999.0,74,0.00,,,0.00,Wunderground v.1.15,2013-04-17 16:25:00,
2013-04-17 11:30:00,79.0,70.0,29.78,South,180,17.0,-999.0,74,0.00,,,0.00,Wunderground v.1.15,2013-04-17 16:30:00,
2013-04-17 11:35:00,79.0,70.0,29.78,South,180,17.0,-999.0,74,0.00,,,0.00,Wunderground v.1.15,2013-04-17 16:35:00,
2013-04-17 11:40:00,79.8,70.0,29.78,South,180,17.0,-999.0,72,0.00,,,0.00,Wunderground v.1.15,2013-04-17 16:40:00,
2013-04-17 11:45:00,79.8,70.0,29.78,South,180,17.0,-999.0,72,0.00,,,0.00,Wunderground v.1.15,2013-04-17 16:45:00,
2013-04-17 11:50:00,79.8,70.0,29.78,South,180,17.0,-999.0,72,0.00,,,0.00,Wunderground v.1.15,2013-04-17 16:50:00,
2013-04-17 11:55:00,80.2,69.9,29.76,SSW,203,16.0,-999.0,71,0.00,,,0.00,Wunderground v.1.15,2013-04-17 16:55:00,
2013-04-17 12:00:00,80.2,69.9,29.76,SSW,203,16.0,-999.0,71,0.00,,,0.00,Wunderground v.1.15,2013-04-17 17:00:00,
2013-04-17 12:05:00,80.2,69.9,29.76,SSW,203,16.0,-999.0,71,0.00,,,0.00,Wunderground v.1.15,2013-04-17 17:05:00,
2013-04-17 12:10:00,81.0,71.1,29.76,South,180,17.0,-999.0,72,0.00,,,0.00,Wunderground v.1.15,2013-04-17 17:10:00,
2013-04-17 12:15:00,81.0,71.1,29.76,South,180,17.0,-999.0,72,0.00,,,0.00,Wunderground v.1.15,2013-04-17 17:15:00,
2013-04-17 12:20:00,81.0,71.1,29.76,South,180,17.0,-999.0,72,0.00,,,0.00,Wunderground v.1.15,2013-04-17 17:20:00,
2013-04-17 12:25:00,81.4,70.7,29.75,South,180,17.0,-999.0,70,0.00,,,0.00,Wunderground v.1.15,2013-04-17 17:25:00,
2013-04-17 12:30:00,81.4,70.7,29.75,South,180,17.0,-999.0,70,0.00,,,0.00,Wunderground v.1.15,2013-04-17 17:30:00,
2013-04-17 12:35:00,81.4,70.7,29.75,South,180,17.0,-999.0,70,0.00,,,0.00,Wunderground v.1.15,2013-04-17 17:35:00,
2013-04-17 12:40:00,82.2,70.6,29.75,South,180,17.0,-999.0,68,0.00,,,0.00,Wunderground v.1.15,2013-04-17 17:40:00,
2013-04-17 12:45:00,82.2,70.6,29.75,South,180,17.0,-999.0,68,0.00,,,0.00,Wunderground v.1.15,2013-04-17 17:45:00,
2013-04-17 12:50:00,82.2,70.6,29.75,South,180,17.0,-999.0,68,0.00,,,0.00,Wunderground v.1.15,2013-04-17 17:50:00,
2013-04-17 12:55:00,82.5,70.4,29.74,South,180,18.0,-999.0,67,0.00,,,0.00,Wunderground v.1.15,2013-04-17 17:55:00,
2013-04-17 13:00:00,82.5,70.4,29.74,South,180,18.0,-999.0,67,0.00,,,0.00,Wunderground v.1.15,2013-04-17 18:00:00,
2013-04-17 13:05:00,82.5,70.4,29.74,South,180,18.0,-999.0,67,0.00,,,0.00,Wunderground v.1.15,2013-04-17 18:05:00,
2013-04-17 13:10:00,83.1,71.0,29.73,SSW,203,18.0,-999.0,67,0.00,,,0.00,Wunderground v.1.15,2013-04-17 18:10:00,
2013-04-17 13:15:00,83.1,71.0,29.73,SSW,203,18.0,-999.0,67,0.00,,,0.00,Wunderground v.1.15,2013-04-17 18:15:00,
2013-04-17 13:20:00,83.1,71.0,29.73,SSW,203,18.0,-999.0,67,0.00,,,0.00,Wunderground v.1.15,2013-04-17 18:20:00,
2013-04-17 13:25:00,83.3,71.2,29.73,South,180,17.0,-999.0,67,0.00,,,0.00,Wunderground v.1.15,2013-04-17 18:25:00,
2013-04-17 13:30:00,83.3,71.2,29.73,South,180,17.0,-999.0,67,0.00,,,0.00,Wunderground v.1.15,2013-04-17 18:30:00,
2013-04-17 13:35:00,83.3,71.2,29.73,South,180,17.0,-999.0,67,0.00,,,0.00,Wunderground v.1.15,2013-04-17 18:35:00,
2013-04-17 13:40:00,83.9,70.9,29.72,SSW,203,16.0,-999.0,65,0.00,,,0.00,Wunderground v.1.15,2013-04-17 18:40:00,
2013-04-17 13:45:00,83.9,70.9,29.72,SSW,203,16.0,-999.0,65,0.00,,,0.00,Wunderground v.1.15,2013-04-17 18:45:00,
2013-04-17 13:50:00,83.9,70.9,29.72,SSW,203,16.0,-999.0,65,0.00,,,0.00,Wunderground v.1.15,2013-04-17 18:50:00,
2013-04-17 13:55:00,83.4,70.8,29.71,South,180,16.0,-999.0,66,0.00,,,0.00,Wunderground v.1.15,2013-04-17 18:55:00,
2013-04-17 14:00:00,83.4,70.8,29.71,South,180,16.0,-999.0,66,0.00,,,0.00,Wunderground v.1.15,2013-04-17 19:00:00,
2013-04-17 14:05:00,83.4,70.8,29.71,South,180,16.0,-999.0,66,0.00,,,0.00,Wunderground v.1.15,2013-04-17 19:05:00,
2013-04-17 14:10:00,82.8,69.8,29.71,South,180,17.0,-999.0,65,0.00,,,0.00,Wunderground v.1.15,2013-04-17 19:10:00,
2013-04-17 14:15:00,82.8,69.8,29.71,South,180,17.0,-999.0,65,0.00,,,0.00,Wunderground v.1.15,2013-04-17 19:15:00,
2013-04-17 14:20:00,82.8,69.8,29.71,South,180,17.0,-999.0,65,0.00,,,0.00,Wunderground v.1.15,2013-04-17 19:20:00,
2013-04-17 14:25:00,84.4,70.4,29.70,South,180,17.0,-999.0,63,0.00,,,0.00,Wunderground v.1.15,2013-04-17 19:25:00,
2013-04-17 14:30:00,84.4,70.4,29.70,South,180,17.0,-999.0,63,0.00,,,0.00,Wunderground v.1.15,2013-04-17 19:30:00,
2013-04-17 14:35:00,84.4,70.4,29.70,South,180,17.0,-999.0,63,0.00,,,0.00,Wunderground v.1.15,2013-04-17 19:35:00,
2013-04-17 14:40:00,84.8,70.3,29.69,South,180,17.0,-999.0,62,0.00,,,0.00,Wunderground v.1.15,2013-04-17 19:40:00,
2013-04-17 14:45:00,84.8,70.3,29.69,South,180,17.0,-999.0,62,0.00,,,0.00,Wunderground v.1.15,2013-04-17 19:45:00,
2013-04-17 14:50:00,84.8,70.3,29.69,South,180,17.0,-999.0,62,0.00,,,0.00,Wunderground v.1.15,2013-04-17 19:50:00,
2013-04-17 14:55:00,84.1,69.7,29.69,South,180,17.0,-999.0,62,0.00,,,0.00,Wunderground v.1.15,2013-04-17 19:55:00,
2013-04-17 15:00:00,84.1,69.7,29.69,South,180,17.0,-999.0,62,0.00,,,0.00,Wunderground v.1.15,2013-04-17 20:00:00,
2013-04-17 15:05:00,84.1,69.7,29.69,South,180,17.0,-999.0,62,0.00,,,0.00,Wunderground v.1.15,2013-04-17 20:05:00,
2013-04-17 15:10:00,83.5,70.0,29.68,South,180,17.0,-999.0,64,0.00,,,0.00,Wunderground v.1.15,2013-04-17 20:10:00,
2013-04-17 15:15:00,83.5,70.0,29.68,South,180,17.0,-999.0,64,0.00,,,0.00,Wunderground v.1.15,2013-04-17 20:15:00,
2013-04-17 15:20:00,83.5,70.0,29.68,South,180,17.0,-999.0,64,0.00,,,0.00,Wunderground v.1.15,2013-04-17 20:20:00,
2013-04-17 15:25:00,83.2,70.2,29.68,South,180,17.0,-999.0,65,0.00,,,0.00,Wunderground v.1.15,2013-04-17 20:25:00,
2013-04-17 15:30:00,83.2,70.2,29.68,South,180,17.0,-999.0,65,0.00,,,0.00,Wunderground v.1.15,2013-04-17 20:30:00,
2013-04-17 15:35:00,83.2,70.2,29.68,South,180,17.0,-999.0,65,0.00,,,0.00,Wunderground v.1.15,2013-04-17 20:35:00,
2013-04-17 15:40:00,83.1,69.7,29.67,SSW,203,18.0,-999.0,64,0.00,,,0.00,Wunderground v.1.15,2013-04-17 20:40:00,
2013-04-17 15:45:00,83.1,69.7,29.67,SSW,203,18.0,-999.0,64,0.00,,,0.00,Wunderground v.1.15,2013-04-17 20:45:00,
2013-04-17 15:50:00,83.1,69.7,29.67,SSW,203,18.0,-999.0,64,0.00,,,0.00,Wunderground v.1.15,2013-04-17 20:50:00,
2013-04-17 15:55:00,82.9,69.5,29.66,South,180,18.0,-999.0,64,0.00,,,0.00,Wunderground v.1.15,2013-04-17 20:55:00,
2013-04-17 16:00:00,82.9,69.5,29.66,South,180,18.0,-999.0,64,0.00,,,0.00,Wunderground v.1.15,2013-04-17 21:00:00,
2013-04-17 16:05:00,82.9,69.5,29.66,South,180,18.0,-999.0,64,0.00,,,0.00,Wunderground v.1.15,2013-04-17 21:05:00,
2013-04-17 16:10:00,82.4,69.4,29.66,South,180,19.0,-999.0,65,0.00,,,0.00,Wunderground v.1.15,2013-04-17 21:10:00,
2013-04-17 16:15:00,82.4,69.4,29.66,South,180,19.0,-999.0,65,0.00,,,0.00,Wunderground v.1.15,2013-04-17 21:15:00,
2013-04-17 16:20:00,82.4,69.4,29.66,South,180,19.0,-999.0,65,0.00,,,0.00,Wunderground v.1.15,2013-04-17 21:20:00,
2013-04-17 16:25:00,81.9,69.9,29.66,South,180,17.0,-999.0,67,0.00,,,0.00,Wunderground v.1.15,2013-04-17 21:25:00,
2013-04-17 16:30:00,81.9,69.9,29.66,South,180,17.0,-999.0,67,0.00,,,0.00,Wunderground v.1.15,2013-04-17 21:30:00,
2013-04-17 16:35:00,81.9,69.9,29.66,South,180,17.0,-999.0,67,0.00,,,0.00,Wunderground v.1.15,2013-04-17 21:35:00,
2013-04-17 16:40:00,81.6,70.4,29.66,South,180,16.0,-999.0,69,0.00,,,0.00,Wunderground v.1.15,2013-04-17 21:40:00,
2013-04-17 16:45:00,81.6,70.4,29.66,South,180,16.0,-999.0,69,0.00,,,0.00,Wunderground v.1.15,2013-04-17 21:45:00,
2013-04-17 16:50:00,81.6,70.4,29.66,South,180,16.0,-999.0,69,0.00,,,0.00,Wunderground v.1.15,2013-04-17 21:50:00,
2013-04-17 16:55:00,81.0,70.3,29.65,South,180,12.0,-999.0,70,0.00,,,0.00,Wunderground v.1.15,2013-04-17 21:55:00,
2013-04-17 17:00:00,81.0,70.3,29.65,South,180,12.0,-999.0,70,0.00,,,0.00,Wunderground v.1.15,2013-04-17 22:00:00,
2013-04-17 17:05:00,81.0,70.3,29.65,South,180,12.0,-999.0,70,0.00,,,0.00,Wunderground v.1.15,2013-04-17 22:05:00,
2013-04-17 17:10:00,80.7,69.2,29.65,South,180,14.0,-999.0,68,0.00,,,0.00,Wunderground v.1.15,2013-04-17 22:10:00,
2013-04-17 17:15:00,80.7,69.2,29.65,South,180,14.0,-999.0,68,0.00,,,0.00,Wunderground v.1.15,2013-04-17 22:15:00,
2013-04-17 17:20:00,80.7,69.2,29.65,South,180,14.0,-999.0,68,0.00,,,0.00,Wunderground v.1.15,2013-04-17 22:20:00,
2013-04-17 17:25:00,80.1,69.0,29.65,South,180,15.0,-999.0,69,0.00,,,0.00,Wunderground v.1.15,2013-04-17 22:25:00,
2013-04-17 17:30:00,80.1,69.0,29.65,South,180,15.0,-999.0,69,0.00,,,0.00,Wunderground v.1.15,2013-04-17 22:30:00,
2013-04-17 17:35:00,80.1,69.0,29.65,South,180,15.0,-999.0,69,0.00,,,0.00,Wunderground v.1.15,2013-04-17 22:35:00,
2013-04-17 17:40:00,79.9,69.2,29.65,South,180,16.0,-999.0,70,0.00,,,0.00,Wunderground v.1.15,2013-04-17 22:40:00,
2013-04-17 17:45:00,79.9,69.2,29.65,South,180,16.0,-999.0,70,0.00,,,0.00,Wunderground v.1.15,2013-04-17 22:45:00,
2013-04-17 17:50:00,79.9,69.2,29.65,South,180,16.0,-999.0,70,0.00,,,0.00,Wunderground v.1.15,2013-04-17 22:50:00,
2013-04-17 17:55:00,79.8,68.7,29.64,South,180,15.0,-999.0,69,0.00,,,0.00,Wunderground v.1.15,2013-04-17 22:55:00,
2013-04-17 18:00:00,79.8,68.7,29.64,South,180,15.0,-999.0,69,0.00,,,0.00,Wunderground v.1.15,2013-04-17 23:00:00,
2013-04-17 18:05:00,79.8,68.7,29.64,South,180,15.0,-999.0,69,0.00,,,0.00,Wunderground v.1.15,2013-04-17 23:05:00,
2013-04-17 18:10:00,79.4,68.8,29.65,South,180,13.0,-999.0,70,0.00,,,0.00,Wunderground v.1.15,2013-04-17 23:10:00,
2013-04-17 18:15:00,79.4,68.8,29.65,South,180,13.0,-999.0,70,0.00,,,0.00,Wunderground v.1.15,2013-04-17 23:15:00,
2013-04-17 18:20:00,79.4,68.8,29.65,South,180,13.0,-999.0,70,0.00,,,0.00,Wunderground v.1.15,2013-04-17 23:20:00,
2013-04-17 18:25:00,79.1,69.3,29.64,South,180,11.0,-999.0,72,0.00,,,0.00,Wunderground v.1.15,2013-04-17 23:25:00,
2013-04-17 18:30:00,79.1,69.3,29.64,South,180,11.0,-999.0,72,0.00,,,0.00,Wunderground v.1.15,2013-04-17 23:30:00,
2013-04-17 18:35:00,79.1,69.3,29.64,South,180,11.0,-999.0,72,0.00,,,0.00,Wunderground v.1.15,2013-04-17 23:35:00,
2013-04-17 18:40:00,79.0,69.6,29.63,South,180,12.0,-999.0,73,0.00,,,0.00,Wunderground v.1.15,2013-04-17 23:40:00,
2013-04-17 18:45:00,79.0,69.6,29.63,South,180,12.0,-999.0,73,0.00,,,0.00,Wunderground v.1.15,2013-04-17 23:45:00,
2013-04-17 18:50:00,79.0,69.6,29.63,South,180,12.0,-999.0,73,0.00,,,0.00,Wunderground v.1.15,2013-04-17 23:50:00,
2013-04-17 18:55:00,78.7,69.7,29.63,South,180,10.0,-999.0,74,0.00,,,0.00,Wunderground v.1.15,2013-04-17 23:55:00,
2013-04-17 19:00:00,78.7,69.7,29.63,South,180,10.0,-999.0,74,0.00,,,0.00,Wunderground v.1.15,2013-04-18 00:00:00,
2013-04-17 19:05:00,78.7,69.7,29.63,South,180,10.0,-999.0,74,0.00,,,0.00,Wunderground v.1.15,2013-04-18 00:05:00,
2013-04-17 19:10:00,78.6,70.0,29.62,South,180,12.0,-999.0,75,0.00,,,0.00,Wunderground v.1.15,2013-04-18 00:10:00,
2013-04-17 19:15:00,78.6,70.0,29.62,South,180,12.0,-999.0,75,0.00,,,0.00,Wunderground v.1.15,2013-04-18 00:15:00,
2013-04-17 19:20:00,78.6,70.0,29.62,South,180,12.0,-999.0,75,0.00,,,0.00,Wunderground v.1.15,2013-04-18 00:20:00,
2013-04-17 19:25:00,78.5,70.7,29.63,South,180,13.0,-999.0,77,0.00,,,0.00,Wunderground v.1.15,2013-04-18 00:25:00,
2013-04-17 19:30:00,78.5,70.7,29.63,South,180,13.0,-999.0,77,0.00,,,0.00,Wunderground v.1.15,2013-04-18 00:30:00,
2013-04-17 19:35:00,78.5,70.7,29.63,South,180,13.0,-999.0,77,0.00,,,0.00,Wunderground v.1.15,2013-04-18 00:35:00,
2013-04-17 19:40:00,78.0,71.0,29.63,South,180,14.0,-999.0,79,0.00,,,0.00,Wunderground v.1.15,2013-04-18 00:40:00,
2013-04-17 19:45:00,78.0,71.0,29.63,South,180,14.0,-999.0,79,0.00,,,0.00,Wunderground v.1.15,2013-04-18 00:45:00,
2013-04-17 19:50:00,78.0,71.0,29.63,South,180,14.0,-999.0,79,0.00,,,0.00,Wunderground v.1.15,2013-04-18 00:50:00,
2013-04-17 19:55:00,77.5,71.2,29.63,South,180,16.0,-999.0,81,0.00,,,0.00,Wunderground v.1.15,2013-04-18 00:55:00,
2013-04-17 20:00:00,77.5,71.2,29.63,South,180,16.0,-999.0,81,0.00,,,0.00,Wunderground v.1.15,2013-04-18 01:00:00,
2013-04-17 20:05:00,77.5,71.2,29.63,South,180,16.0,-999.0,81,0.00,,,0.00,Wunderground v.1.15,2013-04-18 01:05:00,
2013-04-17 20:10:00,77.0,71.4,29.63,South,180,14.0,-999.0,83,0.00,,,0.00,Wunderground v.1.15,2013-04-18 01:10:00,
2013-04-17 20:15:00,77.0,71.4,29.63,South,180,14.0,-999.0,83,0.00,,,0.00,Wunderground v.1.15,2013-04-18 01:15:00,
2013-04-17 20:20:00,77.0,71.4,29.63,South,180,14.0,-999.0,83,0.00,,,0.00,Wunderground v.1.15,2013-04-18 01:20:00,
2013-04-17 20:25:00,76.5,71.3,29.63,South,180,14.0,-999.0,84,0.00,,,0.00,Wunderground v.1.15,2013-04-18 01:25:00,
2013-04-17 20:30:00,76.5,71.3,29.63,South,180,14.0,-999.0,84,0.00,,,0.00,Wunderground v.1.15,2013-04-18 01:30:00,
2013-04-17 20:35:00,76.5,71.3,29.63,South,180,14.0,-999.0,84,0.00,,,0.00,Wunderground v.1.15,2013-04-18 01:35:00,
2013-04-17 20:40:00,76.0,71.5,29.63,South,180,13.0,-999.0,86,0.00,,,0.00,Wunderground v.1.15,2013-04-18 01:40:00,
2013-04-17 20:45:00,76.0,71.5,29.63,South,180,13.0,-999.0,86,0.00,,,0.00,Wunderground v.1.15,2013-04-18 01:45:00,
2013-04-17 20:50:00,76.0,71.5,29.63,South,180,13.0,-999.0,86,0.00,,,0.00,Wunderground v.1.15,2013-04-18 01:50:00,
2013-04-17 20:55:00,75.6,71.5,29.63,South,180,14.0,-999.0,87,0.00,,,0.00,Wunderground v.1.15,2013-04-18 01:55:00,
2013-04-17 21:00:00,75.6,71.5,29.63,South,180,14.0,-999.0,87,0.00,,,0.00,Wunderground v.1.15,2013-04-18 02:00:00,
2013-04-17 21:05:00,75.6,71.5,29.63,South,180,14.0,-999.0,87,0.00,,,0.00,Wunderground v.1.15,2013-04-18 02:05:00,
2013-04-17 21:10:00,75.5,71.4,29.63,South,180,15.0,-999.0,87,0.00,,,0.00,Wunderground v.1.15,2013-04-18 02:10:00,
2013-04-17 21:15:00,75.5,71.4,29.63,South,180,15.0,-999.0,87,0.00,,,0.00,Wunderground v.1.15,2013-04-18 02:15:00,
2013-04-17 21:20:00,75.5,71.4,29.63,South,180,15.0,-999.0,87,0.00,,,0.00,Wunderground v.1.15,2013-04-18 02:20:00,
2013-04-17 21:25:00,75.4,71.6,29.64,South,180,13.0,-999.0,88,0.00,,,0.00,Wunderground v.1.15,2013-04-18 02:25:00,
2013-04-17 21:30:00,75.4,71.6,29.64,South,180,13.0,-999.0,88,0.00,,,0.00,Wunderground v.1.15,2013-04-18 02:30:00,
2013-04-17 21:35:00,75.4,71.6,29.64,South,180,13.0,-999.0,88,0.00,,,0.00,Wunderground v.1.15,2013-04-18 02:35:00,
2013-04-17 21:40:00,75.3,71.5,29.65,South,180,13.0,-999.0,88,0.00,,,0.00,Wunderground v.1.15,2013-04-18 02:40:00,
2013-04-17 21:45:00,75.3,71.5,29.65,South,180,13.0,-999.0,88,0.00,,,0.00,Wunderground v.1.15,2013-04-18 02:45:00,
2013-04-17 21:50:00,75.3,71.5,29.65,South,180,13.0,-999.0,88,0.00,,,0.00,Wunderground v.1.15,2013-04-18 02:50:00,
2013-04-17 21:55:00,75.2,71.7,29.65,South,180,13.0,-999.0,89,0.00,,,0.00,Wunderground v.1.15,2013-04-18 02:55:00,
2013-04-17 22:00:00,75.2,71.7,29.65,South,180,13.0,-999.0,89,0.00,,,0.00,Wunderground v.1.15,2013-04-18 03:00:00,
2013-04-17 22:05:00,75.2,71.7,29.65,South,180,13.0,-999.0,89,0.00,,,0.00,Wunderground v.1.15,2013-04-18 03:05:00,
2013-04-17 22:10:00,74.9,71.8,29.65,South,180,13.0,-999.0,90,0.00,,,0.00,Wunderground v.1.15,2013-04-18 03:10:00,
2013-04-17 22:15:00,74.9,71.8,29.65,South,180,13.0,-999.0,90,0.00,,,0.00,Wunderground v.1.15,2013-04-18 03:15:00,
2013-04-17 22:20:00,74.9,71.8,29.65,South,180,13.0,-999.0,90,0.00,,,0.00,Wunderground v.1.15,2013-04-18 03:20:00,
2013-04-17 22:25:00,74.5,71.7,29.64,South,180,14.0,-999.0,91,0.00,,,0.00,Wunderground v.1.15,2013-04-18 03:25:00,
2013-04-17 22:30:00,74.5,71.7,29.64,South,180,14.0,-999.0,91,0.00,,,0.00,Wunderground v.1.15,2013-04-18 03:30:00,
2013-04-17 22:35:00,74.5,71.7,29.64,South,180,14.0,-999.0,91,0.00,,,0.00,Wunderground v.1.15,2013-04-18 03:35:00,
2013-04-17 22:40:00,74.2,71.7,29.63,South,180,14.0,-999.0,92,0.00,,,0.00,Wunderground v.1.15,2013-04-18 03:40:00,
2013-04-17 22:45:00,74.2,71.7,29.63,South,180,14.0,-999.0,92,0.00,,,0.00,Wunderground v.1.15,2013-04-18 03:45:00,
2013-04-17 22:50:00,74.2,71.7,29.63,South,180,14.0,-999.0,92,0.00,,,0.00,Wunderground v.1.15,2013-04-18 03:50:00,
2013-04-17 22:55:00,74.1,71.6,29.63,South,180,16.0,-999.0,92,0.00,,,0.00,Wunderground v.1.15,2013-04-18 03:55:00,
2013-04-17 23:00:00,74.1,71.6,29.63,South,180,16.0,-999.0,92,0.00,,,0.00,Wunderground v.1.15,2013-04-18 04:00:00,
2013-04-17 23:05:00,74.1,71.6,29.63,South,180,16.0,-999.0,92,0.00,,,0.00,Wunderground v.1.15,2013-04-18 04:05:00,
2013-04-17 23:10:00,74.2,71.7,29.63,South,180,15.0,-999.0,92,0.00,,,0.00,Wunderground v.1.15,2013-04-18 04:10:00,
2013-04-17 23:15:00,74.2,71.7,29.63,South,180,15.0,-999.0,92,0.00,,,0.00,Wunderground v.1.15,2013-04-18 04:15:00,
2013-04-17 23:20:00,74.2,71.7,29.63,South,180,15.0,-999.0,92,0.00,,,0.00,Wunderground v.1.15,2013-04-18 04:20:00,
2013-04-17 23:25:00,74.4,71.6,29.63,SSW,203,17.0,-999.0,91,0.00,,,0.00,Wunderground v.1.15,2013-04-18 04:25:00,
2013-04-17 23:30:00,74.4,71.6,29.63,SSW,203,17.0,-999.0,91,0.00,,,0.00,Wunderground v.1.15,2013-04-18 04:30:00,
2013-04-17 23:35:00,74.4,71.6,29.63,SSW,203,17.0,-999.0,91,0.00,,,0.00,Wunderground v.1.15,2013-04-18 04:35:00,
2013-04-17 23:40:00,74.5,71.4,29.62,South,180,16.0,-999.0,90,0.00,,,0.00,Wunderground v.1.15,2013-04-18 04:40:00,
2013-04-17 23:45:00,74.5,71.4,29.62,South,180,16.0,-999.0,90,0.00,,,0.00,Wunderground v.1.15,2013-04-18 04:45:00,
2013-04-17 23:50:00,74.5,71.4,29.62,South,180,16.0,-999.0,90,0.00,,,0.00,Wunderground v.1.15,2013-04-18 04:50:00,
2013-04-17 23:55:00,74.2,71.4,29.62,South,180,16.0,-999.0,91,0.00,,,0.00,Wunderground v.1.15,2013-04-18 04:55:00,